createdAt,value
2022-12-25T00:01:51.850Z,78293.84
2022-12-25T00:08:54.067Z,78297.94
2022-12-25T00:15:56.617Z,78308.16
2022-12-25T00:22:58.861Z,78304.06
2022-12-25T00:30:01.593Z,78312.25
2022-12-25T00:37:03.735Z,78316.34
2022-12-25T00:44:06.655Z,78328.59
2022-12-25T00:51:11.571Z,78324.50
2022-12-25T00:58:13.476Z,78338.81
2022-12-25T01:05:15.603Z,78340.88
2022-12-25T01:12:17.612Z,78344.97
2022-12-25T01:19:19.530Z,78349.03
2022-12-25T01:26:24.663Z,78365.41
2022-12-25T01:33:26.679Z,78373.59
2022-12-25T01:40:28.626Z,78381.75
2022-12-25T01:47:30.613Z,78389.94
2022-12-25T01:54:39.938Z,78398.13
2022-12-25T02:01:42.294Z,78385.84
2022-12-25T02:08:44.433Z,78387.91
2022-12-25T02:16:10.644Z,78389.94
2022-12-25T02:23:39.559Z,78379.72
2022-12-25T02:30:46.500Z,78379.72
2022-12-25T02:37:52.941Z,78377.69
2022-12-25T02:45:13.476Z,78383.81
2022-12-25T02:52:37.648Z,78383.81
2022-12-25T02:59:59.639Z,78394.03
2022-12-25T03:07:06.447Z,78389.94
2022-12-25T03:14:27.731Z,78391.97
2022-12-25T03:21:48.005Z,78400.16
2022-12-25T03:28:50.017Z,78389.94
2022-12-25T03:36:15.238Z,78387.91
2022-12-25T03:44:00.605Z,78383.81
2022-12-25T03:51:24.468Z,78387.91
2022-12-25T03:58:46.311Z,78381.75
2022-12-25T04:06:07.043Z,78383.81
2022-12-25T04:13:27.677Z,78398.13
2022-12-25T04:20:47.951Z,78387.91
2022-12-25T04:28:08.609Z,78381.75
2022-12-25T04:35:29.205Z,78402.22
2022-12-25T04:42:31.115Z,78418.56
2022-12-25T04:49:33.058Z,78426.75
2022-12-25T04:56:38.658Z,78430.84
2022-12-25T05:03:44.054Z,78416.53
2022-12-25T05:10:46.142Z,78414.47
2022-12-25T05:17:48.079Z,78418.56
2022-12-25T05:24:50.144Z,78416.53
2022-12-25T05:31:52.181Z,78408.34
2022-12-25T05:38:54.089Z,78406.31
2022-12-25T05:45:56.413Z,78410.38
2022-12-25T05:53:01.502Z,78422.66
2022-12-25T06:00:08.308Z,78418.56
2022-12-25T06:07:10.250Z,78430.84
2022-12-25T06:14:13.577Z,78436.97
2022-12-25T06:21:16.448Z,78434.94
2022-12-25T06:28:18.329Z,78434.94
2022-12-25T06:35:20.312Z,78451.28
2022-12-25T06:42:22.335Z,78469.69
2022-12-25T06:49:24.652Z,78469.69
2022-12-25T06:56:28.186Z,78475.81
2022-12-25T07:03:30.891Z,78471.72
2022-12-25T07:10:33.000Z,78490.13
2022-12-25T07:17:36.116Z,78494.22
2022-12-25T07:24:38.088Z,78492.19
2022-12-25T07:31:40.246Z,78500.34
2022-12-25T07:38:42.769Z,78492.19
2022-12-25T07:45:45.017Z,78492.19
2022-12-25T07:52:47.277Z,78494.22
2022-12-25T07:59:49.269Z,78500.34
2022-12-25T08:06:51.298Z,78506.50
2022-12-25T08:13:53.287Z,78504.44
2022-12-25T08:20:55.649Z,78508.53
2022-12-25T08:27:57.855Z,78518.75
2022-12-25T08:35:00.133Z,78522.84
2022-12-25T08:42:02.142Z,78537.16
2022-12-25T08:49:04.282Z,78541.25
2022-12-25T08:56:06.608Z,78535.13
2022-12-25T09:03:08.723Z,78528.97
2022-12-25T09:10:11.249Z,78541.25
2022-12-25T09:17:13.317Z,78543.28
2022-12-25T09:24:15.377Z,78541.25
2022-12-25T09:31:17.479Z,78547.38
2022-12-25T09:38:19.536Z,78533.06
2022-12-25T09:45:33.197Z,78518.75
2022-12-25T09:52:58.911Z,78508.53
2022-12-25T10:00:01.191Z,78488.09
2022-12-25T10:07:16.862Z,78477.88
2022-12-25T10:14:36.408Z,78475.81
2022-12-25T10:21:38.808Z,78477.88
2022-12-25T10:28:51.823Z,78469.69
2022-12-25T10:35:53.922Z,78443.09
2022-12-25T10:43:01.846Z,78436.97
2022-12-25T10:50:29.316Z,78434.94
2022-12-25T10:57:32.690Z,78426.75
2022-12-25T11:04:35.457Z,78447.19
2022-12-25T11:11:38.452Z,78467.63
2022-12-25T11:18:48.065Z,78455.38
2022-12-25T11:26:08.389Z,78445.16
2022-12-25T11:33:12.941Z,78443.09
2022-12-25T11:40:22.512Z,78434.94
2022-12-25T11:47:27.043Z,78451.28
2022-12-25T11:54:32.715Z,78434.94
2022-12-25T12:01:44.261Z,78432.88
2022-12-25T12:08:48.812Z,78430.84
2022-12-25T12:15:51.006Z,78447.19
2022-12-25T12:22:53.361Z,78455.38
2022-12-25T12:29:58.164Z,78451.28
2022-12-25T12:37:04.816Z,78453.31
2022-12-25T12:44:07.884Z,78459.47
2022-12-25T12:51:15.657Z,78465.59
2022-12-25T12:58:51.273Z,78465.59
2022-12-25T13:06:08.586Z,78465.59
2022-12-25T13:13:18.339Z,78467.63
2022-12-25T13:20:34.769Z,78463.56
2022-12-25T13:27:36.830Z,78475.81
2022-12-25T13:34:42.668Z,78479.91
2022-12-25T13:42:05.134Z,78475.81
2022-12-25T13:49:14.996Z,78484.00
2022-12-25T13:56:17.082Z,78502.41
2022-12-25T14:03:23.223Z,78496.25
2022-12-25T14:10:28.098Z,78494.22
2022-12-25T14:17:30.187Z,78496.25
2022-12-25T14:24:33.668Z,78504.44
2022-12-25T14:31:38.669Z,78506.50
2022-12-25T14:38:42.804Z,78508.53
2022-12-25T14:45:55.166Z,78494.22
2022-12-25T14:52:58.278Z,78496.25
2022-12-25T15:00:05.677Z,78512.63
2022-12-25T15:07:26.148Z,78522.84
2022-12-25T15:14:28.214Z,78541.25
2022-12-25T15:21:32.075Z,78541.25
2022-12-25T15:28:34.105Z,78537.16
2022-12-25T15:35:38.743Z,78543.28
2022-12-25T15:42:41.229Z,78541.25
2022-12-25T15:49:43.655Z,78547.38
2022-12-25T15:56:52.630Z,78528.97
2022-12-25T16:03:54.673Z,78537.16
2022-12-25T16:10:56.761Z,78539.22
2022-12-25T16:17:58.938Z,78537.16
2022-12-25T16:25:01.343Z,78543.28
2022-12-25T16:32:03.375Z,78528.97
2022-12-25T16:39:05.845Z,78531.03
2022-12-25T16:46:13.981Z,78533.06
2022-12-25T16:53:16.006Z,78537.16
2022-12-25T17:00:18.809Z,78524.91
2022-12-25T17:07:20.873Z,78528.97
2022-12-25T17:14:22.987Z,78541.25
2022-12-25T17:21:26.681Z,78533.06
2022-12-25T17:28:28.780Z,78541.25
2022-12-25T17:35:30.803Z,78537.16
2022-12-25T17:42:33.069Z,78526.94
2022-12-25T17:49:36.530Z,78531.03
2022-12-25T17:56:38.886Z,78528.97
2022-12-25T18:03:41.160Z,78524.91
2022-12-25T18:10:44.234Z,78533.06
2022-12-25T18:17:46.550Z,78522.84
2022-12-25T18:24:49.218Z,78520.81
2022-12-25T18:31:51.506Z,78520.81
2022-12-25T18:38:54.566Z,78522.84
2022-12-25T18:45:58.426Z,78522.84
2022-12-25T18:53:00.622Z,78522.84
2022-12-25T19:00:04.874Z,78522.84
2022-12-25T19:07:07.025Z,78533.06
2022-12-25T19:14:09.810Z,78528.97
2022-12-25T19:21:12.365Z,78518.75
2022-12-25T19:28:14.450Z,78516.72
2022-12-25T19:35:16.442Z,78524.91
2022-12-25T19:42:19.099Z,78520.81
2022-12-25T19:49:21.238Z,78524.91
2022-12-25T19:56:24.467Z,78504.44
2022-12-25T20:03:27.075Z,78496.25
2022-12-25T20:10:39.002Z,78492.19
2022-12-25T20:17:41.565Z,78498.31
2022-12-25T20:24:43.960Z,78496.25
2022-12-25T20:31:46.190Z,78486.03
2022-12-25T20:38:49.231Z,78484.00
2022-12-25T20:45:52.179Z,78492.19
2022-12-25T20:52:54.988Z,78479.91
2022-12-25T20:59:56.981Z,78481.94
2022-12-25T21:06:59.197Z,78475.81
2022-12-25T21:14:01.145Z,78475.81
2022-12-25T21:21:06.024Z,78475.81
2022-12-25T21:28:07.988Z,78471.72
2022-12-25T21:35:10.181Z,78465.59
2022-12-25T21:42:13.162Z,78455.38
2022-12-25T21:49:35.583Z,78455.38
2022-12-25T21:56:44.627Z,78449.25
2022-12-25T22:03:47.512Z,78447.19
2022-12-25T22:10:49.449Z,78443.09
2022-12-25T22:18:09.819Z,78439.00
2022-12-25T22:25:13.000Z,78426.75
2022-12-25T22:32:16.352Z,78418.56
2022-12-25T22:39:18.319Z,78410.38
2022-12-25T22:46:20.373Z,78389.94
2022-12-25T22:53:22.396Z,78367.44
2022-12-25T23:00:24.404Z,78357.22
2022-12-25T23:07:26.434Z,78349.03
2022-12-25T23:14:40.401Z,78342.91
2022-12-25T23:22:01.166Z,78347.00
2022-12-25T23:29:21.772Z,78340.88
2022-12-25T23:36:24.078Z,78332.69
2022-12-25T23:43:26.052Z,78324.50
2022-12-25T23:50:32.469Z,78320.41
2022-12-25T23:57:36.625Z,78312.25
